Time;durP1;ratioP1;P1;durP2;ratioP2;P2;SDS_P1;SDS_P2;PMS_P1;PMS_P2;Temp;Humidity;BMP_temperature;BMP_pressure;BME280_temperature;BME280_humidity;BME280_pressure;Samples;Min_cycle;Max_cycle;Signal;HPM_P1;HPM_P2
2023/04/25 00:01:39;;;;;;;29.97;6.33;;;5.50;74.10;;;;;;6151850;23;20489;-93
2023/04/25 00:04:05;;;;;;;23.90;5.87;;;5.50;74.50;;;;;;6132677;23;20112;-92
2023/04/25 00:06:37;;;;;;;27.83;6.67;;;5.50;74.40;;;;;;6152883;23;20100;-90
2023/04/25 00:09:15;;;;;;;25.33;6.60;;;5.50;74.50;;;;;;6153601;23;20045;-93
2023/04/25 00:11:41;;;;;;;29.97;6.43;;;5.50;74.50;;;;;;6157247;23;20021;-92
2023/04/25 00:14:07;;;;;;;28.07;6.17;;;5.50;74.20;;;;;;6171107;23;20439;-91
2023/04/25 00:17:02;;;;;;;31.40;6.07;;;5.50;74.20;;;;;;6174711;23;20017;-94
2023/04/25 00:19:32;;;;;;;26.17;6.07;;;5.50;73.50;;;;;;6143031;23;20420;-95
2023/04/25 00:22:24;;;;;;;22.97;5.27;;;5.50;73.90;;;;;;6157761;23;20036;-96
2023/04/25 00:24:50;;;;;;;21.97;5.50;;;5.50;73.80;;;;;;6031382;23;20022;-94
2023/04/25 00:27:51;;;;;;;29.23;4.73;;;5.50;73.60;;;;;;6100091;23;20049;-91
2023/04/25 00:30:36;;;;;;;21.43;4.43;;;5.50;73.40;;;;;;6134687;23;20013;-94
2023/04/25 00:33:43;;;;;;;19.57;4.20;;;5.50;73.30;;;;;;6119104;23;20028;-96
2023/04/25 00:36:22;;;;;;;16.57;4.50;;;5.40;72.90;;;;;;6143433;23;20040;-95
2023/04/25 00:42:19;;;;;;;21.37;4.20;;;5.30;72.40;;;;;;6168089;23;20469;-92
2023/04/25 00:44:45;;;;;;;24.80;4.63;;;5.30;72.80;;;;;;6156426;23;20013;-89
2023/04/25 00:47:29;;;;;;;18.17;4.67;;;5.30;72.30;;;;;;6113053;23;20021;-94
2023/04/25 00:50:14;;;;;;;22.30;4.37;;;5.30;71.70;;;;;;6184197;23;20328;-93
2023/04/25 00:52:44;;;;;;;19.40;3.97;;;5.30;72.10;;;;;;6137108;23;20028;-92
2023/04/25 00:55:36;;;;;;;;;;;;;;;;;;;;;
2023/04/25 00:58:05;;;;;;;21.47;3.80;;;5.30;71.30;;;;;;6164610;23;20024;-94
2023/04/25 01:00:33;;;;;;;16.37;4.10;;;5.30;70.80;;;;;;6159974;23;20020;-95
2023/04/25 01:03:29;;;;;;;;;;;;;;;;;;;;;
2023/04/25 01:06:39;;;;;;;24.03;4.30;;;5.30;70.40;;;;;;6156934;23;20076;-93
2023/04/25 01:09:51;;;;;;;24.70;4.27;;;5.20;70.50;;;;;;6143090;23;20017;-94
2023/04/25 01:12:30;;;;;;;18.17;4.03;;;5.10;70.80;;;;;;6142536;23;20028;-94
2023/04/25 01:14:57;;;;;;;20.73;4.07;;;5.10;70.20;;;;;;6131028;23;20109;-93
2023/04/25 01:17:27;;;;;;;15.97;4.50;;;5.10;70.50;;;;;;6139078;23;20786;-91
2023/04/25 01:19:54;;;;;;;16.60;4.17;;;5.10;70.50;;;;;;6135772;23;20021;-93
2023/04/25 01:22:57;;;;;;;16.67;4.20;;;5.10;70.50;;;;;;6143454;23;20513;-93
2023/04/25 01:33:32;;;;;;;24.07;4.13;;;5.10;70.50;;;;;;6088665;23;20109;-91
2023/04/25 01:39:22;;;;;;;23.83;4.03;;;5.10;70.70;;;;;;6126108;23;20032;-94
2023/04/25 01:41:52;;;;;;;;;;;5.10;70.70;;;;;;6103589;23;20365;-91
2023/04/25 01:44:28;;;;;;;22.37;4.80;;;5.10;70.20;;;;;;6048525;23;19920;-93
2023/04/25 01:46:54;;;;;;;20.97;4.67;;;5.10;71.20;;;;;;6118693;23;20224;-92
2023/04/25 01:49:44;;;;;;;18.77;4.30;;;5.10;71.30;;;;;;6142927;23;20112;-92
2023/04/25 01:52:24;;;;;;;19.90;3.73;;;5.10;71.30;;;;;;6167729;23;20103;-95
2023/04/25 01:55:04;;;;;;;23.97;4.33;;;5.10;71.40;;;;;;6159590;23;20021;-93
2023/04/25 01:57:35;;;;;;;21.00;4.10;;;5.10;71.50;;;;;;6138153;23;20106;-96
2023/04/25 02:00:15;;;;;;;25.48;4.65;;;5.10;71.30;;;;;;6132931;23;20048;-93
2023/04/25 02:02:45;;;;;;;20.93;4.40;;;5.10;71.30;;;;;;6144703;23;20036;-94
2023/04/25 02:08:37;;;;;;;23.27;4.67;;;5.00;71.50;;;;;;6133651;23;20517;-96
2023/04/25 02:11:05;;;;;;;20.30;4.10;;;5.00;71.40;;;;;;6158174;23;20021;-92
2023/04/25 02:13:36;;;;;;;20.47;3.57;;;5.00;71.40;;;;;;6155996;23;20455;-94
2023/04/25 02:16:18;;;;;;;19.80;4.20;;;5.00;71.10;;;;;;6158678;23;20446;-94
2023/04/25 02:18:53;;;;;;;25.70;4.63;;;5.00;71.20;;;;;;6130699;23;20060;-95
2023/04/25 02:21:46;;;;;;;18.03;4.03;;;5.00;71.20;;;;;;6158099;23;20047;-95
2023/04/25 02:24:21;;;;;;;22.87;4.00;;;5.00;71.50;;;;;;6155940;23;20447;-93
2023/04/25 02:26:49;;;;;;;19.70;4.63;;;5.00;71.70;;;;;;6153069;23;20016;-94
2023/04/25 02:29:23;;;;;;;23.47;4.30;;;5.00;71.80;;;;;;6156448;23;20013;-91
2023/04/25 02:32:36;;;;;;;20.23;4.27;;;5.00;72.00;;;;;;6135626;23;20017;-95
2023/04/25 02:35:24;;;;;;;23.50;4.37;;;5.00;72.00;;;;;;6140308;23;20025;-91
2023/04/25 02:38:01;;;;;;;17.63;3.37;;;4.90;72.00;;;;;;6149727;23;20017;-91
2023/04/25 02:40:53;;;;;;;20.67;3.63;;;4.90;72.00;;;;;;6158160;23;20091;-95
2023/04/25 02:43:24;;;;;;;;;;;4.90;71.70;;;;;;6139648;23;20056;-91
2023/04/25 02:45:50;;;;;;;21.17;3.47;;;4.90;71.00;;;;;;6158170;23;19923;-94
2023/04/25 02:48:32;;;;;;;21.27;3.73;;;4.80;71.70;;;;;;6149708;23;20021;-93
2023/04/25 02:51:08;;;;;;;18.20;3.77;;;4.80;71.80;;;;;;6157011;23;20017;-92
2023/04/25 02:54:18;;;;;;;15.83;3.53;;;4.90;72.00;;;;;;6145557;23;20032;-96
2023/04/25 02:56:47;;;;;;;18.17;3.70;;;4.80;71.60;;;;;;6177397;23;20013;-90
2023/04/25 02:59:34;;;;;;;19.53;3.47;;;4.80;71.70;;;;;;6126962;23;20091;-94
2023/04/25 03:02:15;;;;;;;19.83;3.90;;;4.80;71.50;;;;;;6133723;23;20156;-92
2023/04/25 03:04:44;;;;;;;17.37;3.47;;;4.80;71.20;;;;;;6155964;23;20048;-92
2023/04/25 03:07:20;;;;;;;19.27;3.40;;;4.80;71.20;;;;;;6149636;23;20055;-92
2023/04/25 03:10:06;;;;;;;15.20;2.97;;;4.70;71.30;;;;;;6124807;23;20029;-90
2023/04/25 03:12:32;;;;;;;16.87;3.17;;;4.70;71.10;;;;;;6154905;23;20525;-92
2023/04/25 03:14:58;;;;;;;16.40;2.73;;;4.70;71.20;;;;;;6156940;23;20025;-90
2023/04/25 03:17:29;;;;;;;15.93;2.93;;;4.60;70.90;;;;;;6149741;23;20501;-91
2023/04/25 03:20:13;;;;;;;19.70;3.63;;;4.50;70.90;;;;;;6157033;23;20024;-92
2023/04/25 03:23:16;;;;;;;20.83;3.13;;;4.50;70.80;;;;;;6180526;23;20037;-96
2023/04/25 03:25:45;;;;;;;22.20;3.37;;;4.40;70.40;;;;;;6178166;23;20021;-91
2023/04/25 03:28:55;;;;;;;;;;;;;;;;;;;;;
2023/04/25 03:31:35;;;;;;;17.77;3.70;;;4.30;70.50;;;;;;6149536;23;20021;-91
2023/04/25 03:34:21;;;;;;;14.83;3.57;;;4.20;70.90;;;;;;6070560;23;20387;-92
2023/04/25 03:37:07;;;;;;;19.57;3.10;;;4.20;70.70;;;;;;6174067;23;20013;-93
2023/04/25 03:39:53;;;;;;;18.37;3.50;;;4.10;70.60;;;;;;6156325;23;20017;-95
2023/04/25 03:42:31;;;;;;;18.13;3.90;;;4.10;70.90;;;;;;6158973;23;20048;-92
2023/04/25 03:45:07;;;;;;;;;;;;;;;;;;;;;
2023/04/25 03:47:35;;;;;;;20.73;3.50;;;4.10;70.70;;;;;;6171496;23;20047;-93
2023/04/25 03:50:10;;;;;;;18.23;3.50;;;4.10;70.80;;;;;;6160620;23;20017;-95
2023/04/25 03:56:48;;;;;;;17.17;3.67;;;4.10;71.00;;;;;;6096243;23;20092;-96
2023/04/25 03:59:26;;;;;;;;;;;;;;;;;;;;;
2023/04/25 04:02:04;;;;;;;18.47;3.30;;;4.00;71.20;;;;;;6180052;23;20027;-91
2023/04/25 04:04:49;;;;;;;16.60;3.07;;;4.00;71.30;;;;;;6156691;23;20099;-92
2023/04/25 04:07:32;;;;;;;16.60;3.63;;;4.00;71.40;;;;;;6127432;23;20052;-90
2023/04/25 04:10:06;;;;;;;18.17;3.63;;;4.00;71.20;;;;;;6155646;23;20020;-96
2023/04/25 04:12:34;;;;;;;17.57;3.90;;;4.00;71.20;;;;;;6133941;23;20032;-93
2023/04/25 04:15:15;;;;;;;17.73;3.63;;;4.00;71.30;;;;;;6131053;23;20056;-93
2023/04/25 04:17:44;;;;;;;19.00;3.50;;;4.00;71.40;;;;;;6135233;23;20024;-91
2023/04/25 04:20:51;;;;;;;23.87;3.57;;;3.90;71.40;;;;;;6156834;23;20443;-93
2023/04/25 04:26:49;;;;;;;18.87;3.90;;;3.90;71.40;;;;;;6151302;23;20021;-92
2023/04/25 04:29:20;;;;;;;16.23;3.13;;;3.90;71.40;;;;;;6115219;23;20020;-91
2023/04/25 04:31:49;;;;;;;17.43;3.53;;;3.90;71.40;;;;;;6156568;23;20057;-91
2023/04/25 04:34:41;;;;;;;20.87;3.20;;;3.90;71.40;;;;;;6128057;23;20032;-91
2023/04/25 04:37:26;;;;;;;19.60;3.27;;;3.80;71.40;;;;;;6127776;23;20013;-93
2023/04/25 04:40:05;;;;;;;22.80;3.70;;;3.70;71.40;;;;;;6180900;23;20106;-91
2023/04/25 04:42:31;;;;;;;17.67;3.53;;;3.70;71.40;;;;;;6144548;23;20548;-91
2023/04/25 04:45:25;;;;;;;17.20;3.67;;;3.70;71.30;;;;;;6156524;23;20017;-92
2023/04/25 04:47:56;;;;;;;18.53;3.20;;;3.70;71.60;;;;;;6111974;23;20075;-91
2023/04/25 04:50:32;;;;;;;16.60;3.37;;;3.70;71.70;;;;;;6156573;23;20067;-91
2023/04/25 04:53:14;;;;;;;23.70;3.83;;;3.70;71.80;;;;;;6120687;23;20560;-92
2023/04/25 04:58:29;;;;;;;18.60;3.63;;;3.70;71.90;;;;;;6160800;23;20084;-94
2023/04/25 05:12:54;;;;;;;;;;;;;;;;;;;;;
2023/04/25 05:16:10;;;;;;;;;;;;;;;;;;;;;
2023/04/25 05:18:42;;;;;;;15.80;2.03;;;3.70;72.90;;;;;;5863440;24;20033;-91
2023/04/25 05:21:13;;;;;;;10.87;2.27;;;3.70;73.00;;;;;;5912045;24;20024;-90
2023/04/25 05:24:15;;;;;;;13.32;2.67;;;3.70;73.20;;;;;;5996189;23;20109;-90
2023/04/25 05:26:44;;;;;;;10.07;2.25;;;3.80;73.50;;;;;;6039164;23;20015;-90
2023/04/25 05:29:17;;;;;;;10.90;2.17;;;3.90;73.00;;;;;;6110551;23;20020;-91
2023/04/25 05:31:51;;;;;;;12.13;2.10;;;4.00;72.90;;;;;;6134047;23;20467;-90
2023/04/25 05:34:17;;;;;;;12.47;2.50;;;4.00;73.00;;;;;;6127201;23;20332;-91
2023/04/25 05:36:57;;;;;;;11.57;2.03;;;4.20;72.70;;;;;;6151151;23;20128;-92
2023/04/25 05:39:47;;;;;;;;;;;;;;;;;;;;;
2023/04/25 05:45:10;;;;;;;14.50;2.50;;;4.70;72.20;;;;;;6156049;23;20017;-90
2023/04/25 05:47:42;;;;;;;16.00;2.83;;;4.80;72.20;;;;;;6121967;23;20495;-91
2023/04/25 05:50:16;;;;;;;12.90;3.20;;;4.90;71.20;;;;;;6111144;23;20024;-90
2023/04/25 05:52:50;;;;;;;21.38;2.65;;;4.90;70.80;;;;;;6118223;23;20021;-90
2023/04/25 06:02:48;;;;;;;19.20;3.13;;;5.00;71.80;;;;;;6136625;23;20021;-92
2023/04/25 06:05:50;;;;;;;14.07;2.60;;;5.10;71.70;;;;;;6146827;23;20033;-94
2023/04/25 06:12:19;;;;;;;15.95;2.63;;;5.30;72.00;;;;;;6100282;23;20469;-92
2023/04/25 06:14:59;;;;;;;15.40;2.60;;;5.70;71.80;;;;;;6072250;23;20026;-92
2023/04/25 06:17:49;;;;;;;14.43;2.63;;;6.20;71.70;;;;;;6094411;23;20053;-93
2023/04/25 06:21:03;;;;;;;;;;;;;;;;;;;;;
2023/04/25 06:23:40;;;;;;;12.63;2.80;;;6.80;70.10;;;;;;6084594;23;20029;-90
2023/04/25 06:26:09;;;;;;;13.60;2.50;;;7.00;69.30;;;;;;6115482;23;20021;-90
2023/04/25 06:28:37;;;;;;;14.57;2.97;;;7.00;68.20;;;;;;6106676;23;20036;-92
2023/04/25 06:31:55;;;;;;;13.00;3.27;;;7.10;68.20;;;;;;6161148;23;20025;-93
2023/04/25 06:34:37;;;;;;;;;;;;;;;;;;;;;
2023/04/25 06:37:05;;;;;;;17.13;3.00;;;7.10;68.70;;;;;;6147196;23;20013;-88
2023/04/25 06:39:37;;;;;;;13.63;2.60;;;7.00;68.10;;;;;;6110137;23;20056;-94
2023/04/25 06:42:11;;;;;;;;;;;6.90;68.20;;;;;;6160967;23;20028;-90
2023/04/25 06:45:03;;;;;;;15.27;2.90;;;6.80;68.00;;;;;;6137457;23;19916;-93
2023/04/25 06:51:28;;;;;;;;;;;;;;;;;;;;;
2023/04/25 06:54:13;;;;;;;12.73;2.23;;;6.30;68.60;;;;;;6112319;23;20028;-91
2023/04/25 06:57:05;;;;;;;11.90;2.27;;;6.30;69.00;;;;;;6156186;23;20115;-92
2023/04/25 06:59:46;;;;;;;11.00;1.97;;;6.30;67.20;;;;;;6105503;23;20455;-93
2023/04/25 07:02:17;;;;;;;13.80;2.67;;;6.30;68.20;;;;;;6183840;23;20021;-96
2023/04/25 07:04:48;;;;;;;9.70;2.15;;;6.30;68.10;;;;;;6158239;23;20044;-93
2023/04/25 07:07:39;;;;;;;12.82;2.50;;;6.30;68.00;;;;;;6142417;23;20020;-96
2023/04/25 07:10:08;;;;;;;9.95;2.22;;;6.40;67.90;;;;;;6105059;23;20029;-94
2023/04/25 07:12:43;;;;;;;11.60;2.23;;;6.50;68.30;;;;;;6121023;23;20101;-95
2023/04/25 07:15:12;;;;;;;11.97;2.00;;;6.60;67.60;;;;;;6182241;23;20071;-91
2023/04/25 07:17:55;;;;;;;10.63;1.80;;;6.60;67.70;;;;;;6167249;23;20020;-96
2023/04/25 07:20:43;;;;;;;14.00;2.47;;;6.70;67.70;;;;;;6158153;23;20071;-94
2023/04/25 07:23:33;;;;;;;14.70;2.57;;;6.70;67.70;;;;;;6158164;23;20012;-96
2023/04/25 07:26:02;;;;;;;14.67;2.60;;;6.80;68.00;;;;;;6133191;23;20024;-92
2023/04/25 07:28:40;;;;;;;12.50;2.00;;;6.90;67.40;;;;;;6118349;23;20031;-94
2023/04/25 07:31:06;;;;;;;12.10;2.27;;;7.00;68.00;;;;;;6157964;23;20013;-90
2023/04/25 07:33:47;;;;;;;7.93;1.47;;;7.00;67.50;;;;;;6170388;23;20025;-95
2023/04/25 07:36:26;;;;;;;4.82;0.95;;;7.00;67.20;;;;;;6132787;23;20021;-92
2023/04/25 07:39:15;;;;;;;9.17;1.03;;;6.80;66.90;;;;;;6183682;23;20021;-95
2023/04/25 07:44:51;;;;;;;4.93;1.00;;;6.50;67.20;;;;;;6153563;23;20028;-93
2023/04/25 07:48:17;;;;;;;5.67;1.23;;;6.50;67.30;;;;;;6088498;23;20032;-92
2023/04/25 07:50:54;;;;;;;7.37;1.10;;;6.50;67.20;;;;;;6181538;23;20031;-91
2023/04/25 07:53:37;;;;;;;8.70;1.50;;;6.50;67.30;;;;;;6122366;23;20043;-94
2023/04/25 07:56:15;;;;;;;6.67;1.40;;;6.80;68.10;;;;;;6152291;23;20017;-89
2023/04/25 07:58:47;;;;;;;6.20;1.00;;;7.00;68.00;;;;;;6114255;23;20032;-91
2023/04/25 08:01:13;;;;;;;5.30;0.80;;;7.00;67.90;;;;;;6180067;23;20024;-87
2023/04/25 08:03:38;;;;;;;4.77;1.07;;;6.70;68.60;;;;;;6153411;23;20029;-92
2023/04/25 08:06:31;;;;;;;5.07;0.93;;;6.30;69.30;;;;;;6160166;23;20045;-90
2023/04/25 08:08:59;;;;;;;5.87;1.00;;;5.90;70.20;;;;;;6180136;23;20021;-90
2023/04/25 08:11:28;;;;;;;7.57;1.03;;;5.60;70.40;;;;;;6163788;23;20435;-91
2023/04/25 08:14:12;;;;;;;2.63;0.70;;;5.50;70.80;;;;;;6186608;23;20087;-95
2023/04/25 08:17:13;;;;;;;4.20;0.73;;;5.30;71.20;;;;;;6163937;23;20092;-96
2023/04/25 08:19:39;;;;;;;4.60;1.00;;;5.30;71.70;;;;;;6041950;23;20062;-88
2023/04/25 08:23:01;;;;;;;;;;;;;;;;;;;;;
2023/04/25 08:26:41;;;;;;;;;;;;;;;;;;;;;
2023/04/25 08:33:27;;;;;;;5.43;1.30;;;5.50;69.40;;;;;;6040397;23;20090;-91
2023/04/25 08:44:31;;;;;;;6.50;1.27;;;6.00;68.70;;;;;;5955451;24;20375;-94
2023/04/25 08:50:17;;;;;;;8.10;1.33;;;6.00;67.20;;;;;;5670505;24;20101;-91
2023/04/25 08:56:03;;;;;;;;;;;;;;;;;;;;;
2023/04/25 08:59:08;;;;;;;;;;;;;;;;;;;;;
2023/04/25 09:06:19;;;;;;;12.33;2.47;;;8.10;68.40;;;;;;5776490;24;20038;-92
2023/04/25 09:09:16;;;;;;;12.32;2.28;;;8.40;66.10;;;;;;5782195;24;20035;-96
2023/04/25 09:12:40;;;;;;;10.37;2.47;;;8.30;67.00;;;;;;5781808;24;20459;-94
2023/04/25 09:15:29;;;;;;;12.77;2.23;;;8.40;67.20;;;;;;5875282;24;20078;-94
2023/04/25 09:18:11;;;;;;;11.80;2.97;;;8.40;65.80;;;;;;5855037;24;20718;-93
2023/04/25 09:24:35;;;;;;;10.73;2.17;;;8.20;67.10;;;;;;5853094;24;20026;-89
2023/04/25 09:27:24;;;;;;;9.03;1.97;;;7.80;68.30;;;;;;5870142;24;20044;-95
2023/04/25 09:30:11;;;;;;;13.53;2.37;;;7.70;68.40;;;;;;6113301;23;20028;-96
2023/04/25 09:32:43;;;;;;;9.17;1.63;;;7.80;67.90;;;;;;6138190;23;20023;-90
2023/04/25 09:35:24;;;;;;;8.03;1.73;;;8.00;67.60;;;;;;6137342;23;20075;-89
2023/04/25 09:38:01;;;;;;;11.70;1.77;;;8.30;65.90;;;;;;6159200;23;20027;-96
2023/04/25 09:41:03;;;;;;;8.27;2.00;;;8.30;65.90;;;;;;6164725;23;20016;-96
2023/04/25 09:44:33;;;;;;;;;;;;;;;;;;;;;
2023/04/25 09:47:44;;;;;;;13.95;2.97;;;8.00;64.60;;;;;;6122484;23;20036;-96
2023/04/25 09:50:18;;;;;;;14.20;2.80;;;7.80;66.30;;;;;;6184257;23;20016;-93
2023/04/25 09:53:53;;;;;;;;;;;;;;;;;;;;;
2023/04/25 09:57:10;;;;;;;13.43;2.80;;;8.00;65.60;;;;;;6069136;23;20022;-94
2023/04/25 10:00:27;;;;;;;15.80;3.07;;;8.20;65.00;;;;;;6009348;23;20062;-96
2023/04/25 10:02:54;;;;;;;16.07;2.70;;;8.50;66.60;;;;;;6014645;23;20349;-92
2023/04/25 10:05:24;;;;;;;11.10;2.67;;;8.70;66.40;;;;;;6047142;23;20097;-91
2023/04/25 10:08:22;;;;;;;15.57;3.30;;;8.90;66.10;;;;;;6143941;23;20474;-96
2023/04/25 10:11:24;;;;;;;;;;;;;;;;;;;;;
2023/04/25 10:14:31;;;;;;;8.80;1.97;;;8.80;65.60;;;;;;6178573;23;20083;-93
2023/04/25 10:20:23;;;;;;;9.57;2.10;;;8.50;62.30;;;;;;6143806;23;20020;-89
2023/04/25 10:23:44;;;;;;;12.77;2.67;;;8.90;65.20;;;;;;6131437;23;20021;-93
2023/04/25 10:26:50;;;;;;;15.67;3.20;;;8.80;64.80;;;;;;6159449;23;20017;-96
2023/04/25 10:29:27;;;;;;;12.93;2.60;;;8.60;65.10;;;;;;6043940;23;20031;-92
2023/04/25 10:32:10;;;;;;;16.60;2.80;;;8.70;65.40;;;;;;6092453;23;20013;-94
2023/04/25 10:35:02;;;;;;;12.63;2.87;;;8.60;65.50;;;;;;6103352;23;20032;-93
2023/04/25 10:37:30;;;;;;;11.80;2.85;;;8.30;65.60;;;;;;6124467;23;20036;-89
2023/04/25 10:40:10;;;;;;;11.80;2.10;;;8.00;66.30;;;;;;6109297;23;20013;-89
2023/04/25 10:42:51;;;;;;;11.23;2.33;;;7.90;66.70;;;;;;6135499;23;20029;-96
2023/04/25 10:45:19;;;;;;;8.35;1.98;;;7.80;66.70;;;;;;6160350;23;20017;-94
2023/04/25 10:47:45;;;;;;;13.53;2.00;;;7.90;66.70;;;;;;6127762;23;20028;-89
2023/04/25 10:50:52;;;;;;;9.10;1.67;;;8.00;66.40;;;;;;6135204;23;20017;-93
2023/04/25 10:53:18;;;;;;;10.57;1.80;;;8.00;65.80;;;;;;6126307;23;20037;-92
2023/04/25 10:55:52;;;;;;;10.27;1.60;;;8.20;65.00;;;;;;6158112;23;20025;-87
2023/04/25 10:58:22;;;;;;;8.27;1.73;;;8.30;64.20;;;;;;6109009;23;20024;-94
2023/04/25 11:04:38;;;;;;;8.63;2.10;;;8.30;63.20;;;;;;6049877;23;20062;-94
2023/04/25 11:07:20;;;;;;;13.87;2.07;;;8.50;63.20;;;;;;6126380;23;20009;-88
2023/04/25 11:09:47;;;;;;;;;;;8.60;63.20;;;;;;6134940;23;20450;-96
2023/04/25 11:15:51;;;;;;;11.00;1.53;;;8.70;62.60;;;;;;6145932;23;20068;-87
2023/04/25 11:25:49;;;;;;;9.17;2.00;;;9.00;62.30;;;;;;6046573;23;20079;-95
2023/04/25 11:28:29;;;;;;;12.03;2.47;;;9.20;61.10;;;;;;6136176;23;20031;-91
2023/04/25 11:30:56;;;;;;;12.87;1.77;;;9.30;61.90;;;;;;6136751;23;20093;-89
2023/04/25 11:33:57;;;;;;;14.47;2.10;;;9.40;62.50;;;;;;6133293;23;20024;-92
2023/04/25 11:36:50;;;;;;;12.25;1.90;;;9.40;61.20;;;;;;6155775;23;20020;-95
2023/04/25 11:39:29;;;;;;;6.97;1.90;;;9.40;61.70;;;;;;6153596;23;20065;-96
2023/04/25 11:42:13;;;;;;;12.10;2.20;;;9.30;62.60;;;;;;6130150;23;20559;-96
2023/04/25 11:45:20;;;;;;;10.07;2.50;;;9.50;63.40;;;;;;6073082;23;20228;-93
2023/04/25 11:47:49;;;;;;;12.03;1.93;;;9.60;61.80;;;;;;6044684;23;20036;-93
2023/04/25 11:50:21;;;;;;;13.20;2.17;;;9.40;60.70;;;;;;6103358;23;20072;-96
2023/04/25 11:52:47;;;;;;;;;;;9.40;60.30;;;;;;6101761;23;20080;-88
2023/04/25 11:55:30;;;;;;;11.97;2.20;;;9.20;60.70;;;;;;6102735;23;19991;-94
2023/04/25 11:58:51;;;;;;;14.10;2.53;;;9.20;61.20;;;;;;6067111;23;20046;-95
2023/04/25 12:05:12;;;;;;;10.60;2.30;;;8.90;62.60;;;;;;5893789;24;20025;-89
2023/04/25 12:07:47;;;;;;;11.87;2.50;;;8.90;63.20;;;;;;6056829;23;20061;-94
2023/04/25 12:10:17;;;;;;;8.93;2.03;;;8.80;62.60;;;;;;6076249;23;20018;-93
2023/04/25 12:12:45;;;;;;;8.03;1.80;;;8.90;62.90;;;;;;6058753;23;20092;-91
2023/04/25 12:15:18;;;;;;;6.53;1.85;;;9.20;62.20;;;;;;6097059;23;20124;-90
2023/04/25 12:21:09;;;;;;;9.93;1.90;;;9.60;61.80;;;;;;6072426;23;20034;-94
2023/04/25 12:24:36;;;;;;;11.20;1.57;;;9.90;61.70;;;;;;6107371;23;20024;-96
2023/04/25 12:27:43;;;;;;;9.63;1.70;;;9.70;59.10;;;;;;6080867;23;20052;-89
2023/04/25 12:30:19;;;;;;;13.07;2.30;;;9.40;61.10;;;;;;6112000;23;20052;-93
2023/04/25 12:32:47;;;;;;;9.93;1.83;;;9.30;61.70;;;;;;6096452;23;20017;-88
2023/04/25 12:35:20;;;;;;;11.30;2.13;;;9.20;62.00;;;;;;6136223;23;20017;-90
2023/04/25 12:41:14;;;;;;;9.70;1.43;;;9.30;60.30;;;;;;6059217;23;20081;-94
2023/04/25 12:43:43;;;;;;;9.80;1.90;;;9.40;61.10;;;;;;6010984;23;20081;-95
2023/04/25 12:47:10;;;;;;;;;;;;;;;;;;;;;
2023/04/25 12:50:21;;;;;;;8.33;1.90;;;9.50;60.70;;;;;;6125853;23;20024;-92
2023/04/25 12:52:49;;;;;;;7.13;2.00;;;9.20;59.50;;;;;;6133981;23;20093;-90
2023/04/25 12:55:15;;;;;;;12.17;2.50;;;9.00;61.70;;;;;;6109787;23;20021;-90
2023/04/25 13:00:54;;;;;;;14.33;2.70;;;8.80;62.50;;;;;;6160227;23;20024;-89
2023/04/25 13:03:22;;;;;;;8.90;2.50;;;8.60;62.80;;;;;;6106361;23;20437;-94
2023/04/25 13:05:58;;;;;;;;;;;8.30;63.00;;;;;;6131398;23;20021;-96
2023/04/25 13:08:24;;;;;;;12.57;2.10;;;8.20;63.00;;;;;;6110237;23;19928;-88
2023/04/25 13:10:53;;;;;;;8.43;1.83;;;8.30;63.40;;;;;;6140175;23;20584;-92
2023/04/25 13:13:27;;;;;;;11.87;2.20;;;8.40;63.40;;;;;;6147020;23;20021;-94
2023/04/25 13:16:00;;;;;;;14.37;2.83;;;8.50;63.20;;;;;;6159660;23;20017;-95
2023/04/25 13:18:52;;;;;;;14.50;2.30;;;8.60;63.20;;;;;;6128097;23;20027;-95
2023/04/25 13:21:52;;;;;;;15.03;2.60;;;8.90;63.50;;;;;;6168165;23;20024;-92
2023/04/25 13:24:41;;;;;;;9.67;2.43;;;9.10;61.60;;;;;;6132334;23;20363;-95
2023/04/25 13:27:24;;;;;;;12.43;2.67;;;9.10;61.70;;;;;;6146205;23;20040;-95
2023/04/25 13:29:50;;;;;;;11.70;2.43;;;9.20;62.70;;;;;;6135554;23;20439;-90
2023/04/25 13:32:25;;;;;;;7.13;1.43;;;9.20;62.50;;;;;;6170461;23;20019;-94
2023/04/25 13:38:10;;;;;;;10.30;1.50;;;9.30;60.80;;;;;;6174342;23;20100;-91
2023/04/25 13:40:42;;;;;;;8.33;1.70;;;9.40;61.00;;;;;;6160640;23;20060;-95
2023/04/25 13:43:07;;;;;;;10.17;1.90;;;9.40;60.70;;;;;;6133107;23;20487;-89
2023/04/25 13:45:39;;;;;;;9.57;2.20;;;9.40;60.60;;;;;;6182754;23;20017;-93
2023/04/25 13:48:06;;;;;;;8.10;1.80;;;9.20;60.80;;;;;;6149334;23;20021;-89
2023/04/25 13:50:43;;;;;;;16.67;2.27;;;9.00;61.10;;;;;;6182701;23;20021;-93
2023/04/25 13:53:21;;;;;;;6.77;1.73;;;8.90;61.90;;;;;;6131653;23;20499;-93
2023/04/25 13:56:08;;;;;;;12.93;2.03;;;8.90;61.80;;;;;;6161854;23;20332;-95
2023/04/25 13:59:31;;;;;;;11.13;2.27;;;8.90;61.80;;;;;;6151220;23;20021;-95
2023/04/25 14:02:11;;;;;;;14.73;2.73;;;8.90;61.50;;;;;;6149180;23;20021;-96
2023/04/25 14:04:37;;;;;;;14.77;2.57;;;9.00;62.10;;;;;;6131699;23;20020;-90
2023/04/25 14:07:06;;;;;;;10.17;2.33;;;9.00;62.30;;;;;;6130434;23;20439;-90
2023/04/25 14:09:32;;;;;;;8.80;1.70;;;8.90;62.50;;;;;;6162646;23;20013;-87
2023/04/25 14:12:01;;;;;;;9.23;1.70;;;8.90;61.80;;;;;;6167019;23;20163;-90
2023/04/25 14:14:37;;;;;;;8.87;1.40;;;9.00;61.20;;;;;;6120676;23;20021;-89
2023/04/25 14:17:59;;;;;;;18.43;2.10;;;9.20;60.80;;;;;;6129355;23;20652;-94
2023/04/25 14:20:48;;;;;;;10.83;1.80;;;9.40;59.30;;;;;;6159443;23;20017;-95
2023/04/25 14:23:14;;;;;;;11.13;2.50;;;9.20;60.10;;;;;;6083553;23;20017;-91
2023/04/25 14:25:45;;;;;;;10.97;1.80;;;9.10;60.70;;;;;;6135998;23;20403;-94
2023/04/25 14:29:00;;;;;;;11.60;2.00;;;9.20;61.20;;;;;;6089332;23;20369;-96
2023/04/25 14:31:44;;;;;;;;;;;;;;;;;;;;;
2023/04/25 14:34:28;;;;;;;14.20;2.90;;;9.40;61.60;;;;;;6139898;23;20029;-91
2023/04/25 14:37:18;;;;;;;13.80;2.80;;;9.20;62.20;;;;;;6129569;23;20048;-92
2023/04/25 14:39:52;;;;;;;11.43;2.37;;;8.90;62.70;;;;;;6159061;23;20082;-95
2023/04/25 14:42:23;;;;;;;10.27;2.37;;;8.60;62.90;;;;;;6095775;23;20021;-96
2023/04/25 14:44:55;;;;;;;16.02;3.15;;;8.40;63.20;;;;;;6111104;23;20029;-94
2023/04/25 14:47:21;;;;;;;10.93;1.70;;;8.40;63.00;;;;;;6087522;23;20104;-88
2023/04/25 14:49:53;;;;;;;8.57;1.87;;;8.50;62.10;;;;;;6107890;23;20055;-87
2023/04/25 14:52:21;;;;;;;10.63;1.73;;;8.80;62.50;;;;;;6134278;23;20348;-91
2023/04/25 14:54:47;;;;;;;11.57;1.90;;;9.00;62.70;;;;;;6134765;23;20099;-87
2023/04/25 14:57:19;;;;;;;14.83;1.97;;;9.20;62.90;;;;;;6090275;23;20063;-93
2023/04/25 14:59:45;;;;;;;6.43;1.50;;;9.30;62.60;;;;;;6133876;23;20013;-90
2023/04/25 15:02:11;;;;;;;11.17;2.27;;;9.40;62.40;;;;;;6140291;23;20025;-96
2023/04/25 15:04:37;;;;;;;11.60;2.30;;;9.40;62.50;;;;;;6108055;23;20083;-92
2023/04/25 15:07:03;;;;;;;11.97;2.30;;;9.30;62.20;;;;;;6127539;23;20021;-86
2023/04/25 15:09:32;;;;;;;10.77;2.27;;;9.10;61.80;;;;;;6109929;23;20024;-94
2023/04/25 15:11:58;;;;;;;16.30;2.30;;;8.80;61.70;;;;;;6133185;23;20017;-90
2023/04/25 15:14:29;;;;;;;10.33;2.27;;;8.50;62.10;;;;;;6156499;23;20515;-90
2023/04/25 15:16:58;;;;;;;13.47;2.60;;;8.30;62.50;;;;;;6130103;23;20021;-89
2023/04/25 15:19:24;;;;;;;12.27;2.47;;;8.00;63.00;;;;;;6120619;23;20051;-94
2023/04/25 15:21:52;;;;;;;11.93;2.43;;;7.80;63.30;;;;;;6139351;23;20103;-90
2023/04/25 15:24:18;;;;;;;12.43;1.87;;;7.60;63.60;;;;;;6162717;23;20051;-91
2023/04/25 15:26:45;;;;;;;11.83;2.10;;;7.50;63.40;;;;;;6130554;23;20017;-91
2023/04/25 15:29:11;;;;;;;9.07;1.70;;;7.40;63.30;;;;;;6161695;23;21872;-87
2023/04/25 15:31:46;;;;;;;9.87;2.07;;;7.50;63.30;;;;;;6188754;23;20016;-88
2023/04/25 15:34:23;;;;;;;11.97;1.93;;;7.60;63.30;;;;;;6125902;23;20024;-95
2023/04/25 15:36:49;;;;;;;12.33;2.00;;;8.00;63.60;;;;;;6157578;23;20059;-90
2023/04/25 15:39:15;;;;;;;13.17;1.90;;;8.10;63.30;;;;;;6163299;23;20017;-87
2023/04/25 15:41:57;;;;;;;;;;;;;;;;;;;;;
2023/04/25 15:44:32;;;;;;;10.47;1.87;;;8.40;62.30;;;;;;6185512;23;20028;-95
2023/04/25 15:46:58;;;;;;;12.10;1.90;;;8.40;62.20;;;;;;6155390;23;20035;-91
2023/04/25 15:49:24;;;;;;;9.77;2.03;;;8.50;63.10;;;;;;6184451;23;20550;-88
2023/04/25 15:51:53;;;;;;;13.57;2.60;;;8.50;63.40;;;;;;6136731;23;20017;-87
2023/04/25 15:54:19;;;;;;;11.87;2.10;;;8.60;63.50;;;;;;6157850;23;20032;-88
2023/04/25 15:56:45;;;;;;;9.47;1.80;;;8.50;63.00;;;;;;6129194;23;20020;-93
2023/04/25 15:59:16;;;;;;;8.67;1.70;;;8.40;62.90;;;;;;6160622;23;20039;-88
2023/04/25 16:01:44;;;;;;;8.05;1.60;;;8.50;63.20;;;;;;6120016;23;20443;-95
2023/04/25 16:04:34;;;;;;;9.97;1.60;;;8.60;63.10;;;;;;6138940;23;20486;-94
2023/04/25 16:07:00;;;;;;;9.03;2.03;;;8.70;61.70;;;;;;6155797;23;20016;-89
2023/04/25 16:09:26;;;;;;;8.90;1.63;;;8.60;62.20;;;;;;6161492;23;20021;-94
2023/04/25 16:11:55;;;;;;;8.67;2.07;;;8.60;62.10;;;;;;6163552;23;20387;-87
2023/04/25 16:14:21;;;;;;;10.70;1.80;;;8.60;61.90;;;;;;6159166;23;20025;-89
2023/04/25 16:16:47;;;;;;;9.40;1.47;;;8.60;61.40;;;;;;6132889;23;20095;-90
2023/04/25 16:19:21;;;;;;;10.93;1.40;;;8.60;61.60;;;;;;6139321;23;20024;-93
2023/04/25 16:21:58;;;;;;;8.00;1.57;;;8.50;61.30;;;;;;6140243;23;20017;-93
2023/04/25 16:24:23;;;;;;;8.93;1.80;;;8.50;61.40;;;;;;6150891;23;20379;-94
2023/04/25 16:26:49;;;;;;;7.57;1.73;;;8.40;61.70;;;;;;6133950;23;20017;-90